Time;durP1;ratioP1;P1;durP2;ratioP2;P2;SDS_P1;SDS_P2;PMS_P1;PMS_P2;Temp;Humidity;BMP_temperature;BMP_pressure;BME280_temperature;BME280_humidity;BME280_pressure;Samples;Min_cycle;Max_cycle;Signal;HPM_P1;HPM_P2
2022/03/19 00:01:03;;;;;;;36.00;29.47;;;6.20;98.90;;;;;;5052232;28;20197;-51
2022/03/19 00:03:28;;;;;;;36.70;30.37;;;6.20;99.20;;;;;;5052223;28;20186;-51
2022/03/19 00:05:54;;;;;;;39.67;30.27;;;6.10;99.40;;;;;;5052195;28;20175;-49
2022/03/19 00:08:20;;;;;;;37.43;29.10;;;6.10;99.50;;;;;;5052343;28;20199;-53
2022/03/19 00:10:45;;;;;;;33.20;27.43;;;6.00;99.80;;;;;;5051928;28;20268;-50
2022/03/19 00:13:12;;;;;;;37.40;28.60;;;6.00;99.90;;;;;;5052182;28;20171;-48
2022/03/19 00:15:38;;;;;;;41.97;29.13;;;5.90;99.90;;;;;;5052076;28;20175;-49
2022/03/19 00:18:04;;;;;;;38.63;31.17;;;5.90;99.90;;;;;;5051538;28;20210;-49
2022/03/19 00:20:31;;;;;;;37.27;29.97;;;5.90;99.90;;;;;;5051446;28;20198;-47
2022/03/19 00:22:57;;;;;;;37.40;29.70;;;5.80;99.90;;;;;;5051681;28;20179;-49
2022/03/19 00:25:23;;;;;;;36.00;29.50;;;5.80;99.90;;;;;;5052033;28;20726;-49
2022/03/19 00:27:48;;;;;;;39.83;29.93;;;5.60;99.90;;;;;;5051978;28;20261;-48
2022/03/19 00:30:15;;;;;;;37.70;29.23;;;5.50;99.90;;;;;;5051728;28;20205;-47
2022/03/19 00:32:41;;;;;;;37.03;30.27;;;5.40;99.90;;;;;;5051541;28;20651;-49
2022/03/19 00:35:07;;;;;;;39.23;29.73;;;5.40;99.90;;;;;;5051740;28;20180;-48
2022/03/19 00:37:47;;;;;;;37.27;28.20;;;5.40;99.90;;;;;;5051740;28;20171;-49
2022/03/19 00:40:14;;;;;;;37.30;29.23;;;5.40;99.90;;;;;;5047748;28;20206;-48
2022/03/19 00:42:41;;;;;;;38.03;29.63;;;5.30;99.90;;;;;;5050476;28;20175;-49
2022/03/19 00:45:07;;;;;;;38.83;31.17;;;5.30;99.90;;;;;;5051210;28;20200;-48
2022/03/19 00:47:33;;;;;;;36.23;28.53;;;5.20;99.90;;;;;;5051312;28;20175;-48
2022/03/19 00:49:58;;;;;;;38.77;30.03;;;5.20;99.90;;;;;;5051165;28;20698;-50
2022/03/19 00:52:24;;;;;;;37.60;28.93;;;5.20;99.90;;;;;;5051330;28;20179;-48
2022/03/19 00:54:49;;;;;;;32.77;26.90;;;5.20;99.90;;;;;;5051695;28;20532;-48
2022/03/19 00:57:15;;;;;;;34.60;27.87;;;5.10;99.90;;;;;;5051483;28;20179;-48
2022/03/19 00:59:41;;;;;;;36.90;29.23;;;5.10;99.90;;;;;;5051069;28;20679;-51
2022/03/19 01:02:06;;;;;;;35.40;27.77;;;5.10;99.90;;;;;;5042323;28;20190;-46
2022/03/19 01:04:32;;;;;;;38.00;27.20;;;5.10;99.90;;;;;;5044460;28;20183;-48
2022/03/19 01:06:57;;;;;;;36.77;27.33;;;5.00;99.90;;;;;;5051418;28;20233;-51
2022/03/19 01:09:23;;;;;;;35.33;25.83;;;5.10;99.90;;;;;;5051137;28;20183;-48
2022/03/19 01:11:48;;;;;;;33.53;27.20;;;5.10;99.90;;;;;;5051388;28;20234;-47
2022/03/19 01:14:14;;;;;;;32.77;25.93;;;5.20;99.90;;;;;;5050836;28;20175;-48
2022/03/19 01:16:39;;;;;;;35.57;26.70;;;5.30;99.90;;;;;;5051239;28;20187;-48
2022/03/19 01:19:05;;;;;;;33.37;25.60;;;5.30;99.90;;;;;;5051090;28;20203;-48
2022/03/19 01:21:31;;;;;;;31.37;25.73;;;5.30;99.90;;;;;;5051307;28;20187;-48
2022/03/19 01:23:56;;;;;;;31.37;25.30;;;5.30;99.90;;;;;;5051141;28;20198;-49
2022/03/19 01:26:22;;;;;;;32.90;26.63;;;5.10;99.90;;;;;;5051364;28;20640;-48
2022/03/19 01:28:47;;;;;;;31.67;25.40;;;5.10;99.90;;;;;;5052340;28;20236;-52
2022/03/19 01:31:13;;;;;;;32.40;25.83;;;5.00;99.90;;;;;;5054995;28;20672;-47
2022/03/19 01:33:38;;;;;;;35.23;25.90;;;5.00;99.90;;;;;;5053749;28;20183;-48
2022/03/19 01:36:04;;;;;;;32.00;25.00;;;4.90;99.90;;;;;;5055128;28;20179;-51
2022/03/19 01:38:30;;;;;;;30.03;23.90;;;4.80;99.90;;;;;;5055219;28;20203;-52
2022/03/19 01:40:55;;;;;;;32.73;25.33;;;4.90;99.90;;;;;;5054907;28;20270;-53
2022/03/19 01:43:21;;;;;;;34.63;25.67;;;4.90;99.90;;;;;;5054823;28;20261;-51
2022/03/19 01:45:48;;;;;;;34.23;25.70;;;4.80;99.90;;;;;;5054934;28;20358;-48
2022/03/19 01:48:13;;;;;;;30.97;25.30;;;4.80;99.90;;;;;;5054764;28;20182;-54
2022/03/19 01:50:39;;;;;;;30.97;24.97;;;4.70;99.90;;;;;;5054557;28;20198;-53
2022/03/19 01:53:04;;;;;;;30.40;23.87;;;4.60;99.90;;;;;;5054421;28;20187;-49
2022/03/19 01:55:31;;;;;;;32.67;25.27;;;4.70;99.90;;;;;;5054972;28;20183;-47
2022/03/19 01:57:58;;;;;;;30.33;24.90;;;4.60;99.90;;;;;;5054633;28;20199;-48
2022/03/19 02:00:24;;;;;;;30.90;24.30;;;4.60;99.90;;;;;;5054465;28;20194;-48
2022/03/19 02:02:51;;;;;;;32.73;25.13;;;4.50;99.90;;;;;;5054383;28;20168;-48
2022/03/19 02:05:22;;;;;;;30.63;24.63;;;4.50;99.90;;;;;;5054348;28;20248;-48
2022/03/19 02:07:49;;;;;;;29.17;24.07;;;4.50;99.90;;;;;;5053492;28;20183;-53
2022/03/19 02:10:17;;;;;;;31.33;25.40;;;4.50;99.90;;;;;;5036420;28;20702;-52
2022/03/19 02:12:44;;;;;;;30.93;24.03;;;4.50;99.90;;;;;;5054133;28;20171;-50
2022/03/19 02:15:11;;;;;;;28.97;22.93;;;4.40;99.80;;;;;;5054386;28;20174;-52
2022/03/19 02:17:37;;;;;;;30.43;23.73;;;4.40;99.80;;;;;;5054270;28;20183;-53
2022/03/19 02:20:04;;;;;;;27.67;22.60;;;4.30;99.60;;;;;;5051459;28;20203;-54
2022/03/19 02:22:30;;;;;;;29.80;23.93;;;4.40;99.40;;;;;;5052740;28;20186;-48
2022/03/19 02:27:42;;;;;;;29.33;22.33;;;4.20;99.50;;;;;;5053403;28;20186;-51
2022/03/19 02:30:10;;;;;;;28.20;21.83;;;4.30;99.30;;;;;;5053614;28;20575;-47
2022/03/19 02:32:39;;;;;;;27.53;22.47;;;4.40;99.10;;;;;;5053767;28;20175;-50
2022/03/19 02:35:06;;;;;;;28.30;22.47;;;4.40;98.60;;;;;;5054049;28;20702;-49
2022/03/19 02:37:42;;;;;;;29.70;22.80;;;4.50;98.50;;;;;;5053325;28;20253;-50
2022/03/19 02:40:10;;;;;;;26.67;21.40;;;4.50;98.30;;;;;;5052788;28;20235;-52
2022/03/19 02:42:35;;;;;;;27.67;21.43;;;4.50;98.20;;;;;;5053129;28;20261;-48
2022/03/19 02:45:01;;;;;;;28.87;21.47;;;4.60;98.20;;;;;;5053786;28;20266;-47
2022/03/19 02:47:27;;;;;;;26.93;21.50;;;4.50;98.50;;;;;;5053889;28;20229;-48
2022/03/19 02:49:52;;;;;;;29.37;22.17;;;4.40;99.90;;;;;;5053608;28;20196;-48
2022/03/19 02:52:18;;;;;;;28.23;20.53;;;;;;;;;;5035569;28;20185;-53
2022/03/19 02:54:45;;;;;;;27.57;22.13;;;4.30;99.90;;;;;;5053306;28;20261;-47
2022/03/19 02:57:10;;;;;;;25.37;20.83;;;4.10;99.90;;;;;;5053359;28;20663;-53
2022/03/19 02:59:36;;;;;;;27.27;20.83;;;4.20;99.90;;;;;;5053340;28;20197;-47
2022/03/19 03:02:04;;;;;;;26.30;21.40;;;4.10;98.00;;;;;;5053661;28;20174;-48
2022/03/19 03:04:30;;;;;;;25.50;20.77;;;4.10;98.00;;;;;;5035363;28;20183;-50
2022/03/19 03:06:59;;;;;;;25.80;19.93;;;3.90;99.90;;;;;;5053999;28;20163;-47
2022/03/19 03:09:27;;;;;;;26.63;21.57;;;4.10;99.90;;;;;;5053473;28;20182;-48
2022/03/19 03:11:53;;;;;;;29.27;21.70;;;4.30;99.90;;;;;;5053116;28;20203;-51
2022/03/19 03:14:22;;;;;;;27.13;20.70;;;4.00;99.90;;;;;;5053240;28;20174;-49
2022/03/19 03:16:52;;;;;;;28.43;21.13;;;4.10;97.20;;;;;;5053118;28;20178;-51
2022/03/19 03:19:18;;;;;;;25.43;19.17;;;4.00;99.90;;;;;;5053139;28;20297;-51
2022/03/19 03:21:45;;;;;;;26.80;19.67;;;;;;;;;;5053034;28;20191;-50
2022/03/19 03:24:12;;;;;;;27.23;20.90;;;4.00;99.90;;;;;;5052938;28;20164;-50
2022/03/19 03:26:38;;;;;;;26.43;20.37;;;3.80;99.90;;;;;;5035188;28;20201;-47
2022/03/19 03:29:05;;;;;;;26.60;20.97;;;4.20;99.90;;;;;;5052563;28;20261;-50
2022/03/19 03:31:32;;;;;;;25.77;20.70;;;3.70;96.80;;;;;;5052821;28;20283;-49
2022/03/19 03:33:59;;;;;;;28.50;20.70;;;4.00;96.90;;;;;;5052632;28;20187;-49
2022/03/19 03:36:24;;;;;;;27.73;20.93;;;3.90;96.80;;;;;;5052844;28;20182;-48
2022/03/19 03:38:50;;;;;;;26.23;20.20;;;3.90;97.30;;;;;;5052784;28;20667;-48
2022/03/19 03:41:16;;;;;;;28.50;20.73;;;3.80;97.10;;;;;;5052654;28;20187;-48
2022/03/19 03:43:42;;;;;;;25.83;20.43;;;3.70;97.10;;;;;;5050323;28;20594;-47
2022/03/19 03:46:07;;;;;;;25.40;19.80;;;3.80;97.00;;;;;;5050618;28;20179;-47
2022/03/19 03:48:35;;;;;;;24.53;19.77;;;3.80;97.00;;;;;;5052113;28;20179;-48
2022/03/19 03:51:01;;;;;;;25.87;19.70;;;3.80;97.00;;;;;;5051556;28;20195;-48
2022/03/19 03:53:28;;;;;;;23.07;18.80;;;3.80;97.00;;;;;;5051670;28;20192;-50
2022/03/19 03:55:54;;;;;;;25.47;19.37;;;3.80;97.00;;;;;;5052350;28;20174;-47
2022/03/19 03:58:20;;;;;;;27.87;19.83;;;3.80;96.90;;;;;;5052388;28;20664;-48
2022/03/19 04:00:46;;;;;;;25.30;19.37;;;3.80;96.80;;;;;;5051787;28;20211;-48
2022/03/19 04:03:11;;;;;;;25.87;20.13;;;3.70;96.70;;;;;;5051760;28;20179;-51
2022/03/19 04:05:37;;;;;;;24.50;18.43;;;3.70;96.40;;;;;;5052291;28;20167;-50
2022/03/19 04:08:04;;;;;;;26.47;18.60;;;3.60;96.10;;;;;;5052188;28;20174;-51
2022/03/19 04:10:31;;;;;;;21.67;17.73;;;3.50;95.80;;;;;;5051183;28;20293;-48
2022/03/19 04:12:56;;;;;;;22.77;17.33;;;3.50;95.60;;;;;;5051783;28;20193;-48
2022/03/19 04:15:22;;;;;;;22.43;17.30;;;3.40;95.10;;;;;;5049770;28;20667;-51
2022/03/19 04:17:48;;;;;;;22.23;17.30;;;3.50;95.00;;;;;;5051214;28;20214;-50
2022/03/19 04:20:14;;;;;;;22.47;17.87;;;3.50;94.80;;;;;;5051221;28;20198;-48
2022/03/19 04:22:42;;;;;;;22.57;17.40;;;3.50;94.60;;;;;;5051713;28;20163;-49
2022/03/19 04:25:13;;;;;;;23.93;16.73;;;3.50;94.50;;;;;;5051936;28;20584;-49
2022/03/19 04:27:41;;;;;;;21.87;16.57;;;3.50;94.20;;;;;;5051945;28;20175;-48
2022/03/19 04:30:08;;;;;;;21.83;17.10;;;3.50;94.30;;;;;;5051639;28;20226;-51
2022/03/19 04:32:40;;;;;;;21.60;16.83;;;3.50;94.20;;;;;;5051493;28;20178;-48
2022/03/19 04:36:29;;;;;;;22.17;16.57;;;3.50;94.00;;;;;;5051496;28;20159;-48
2022/03/19 04:37:51;;;;;;;19.80;16.83;;;3.50;93.70;;;;;;5051725;28;20293;-52
2022/03/19 04:40:17;;;;;;;23.67;16.90;;;3.50;93.30;;;;;;5051439;28;20237;-49
2022/03/19 04:42:42;;;;;;;22.17;16.70;;;3.50;93.20;;;;;;5051320;28;20228;-51
2022/03/19 04:45:08;;;;;;;21.20;16.53;;;3.40;93.00;;;;;;5051623;28;20198;-48
2022/03/19 04:47:33;;;;;;;20.97;15.67;;;3.50;92.80;;;;;;5051723;28;20242;-53
2022/03/19 04:50:01;;;;;;;21.73;16.07;;;3.50;92.60;;;;;;5050001;28;20191;-48
2022/03/19 04:52:26;;;;;;;21.47;16.00;;;3.50;92.60;;;;;;5050751;28;20199;-49
2022/03/19 04:54:53;;;;;;;21.20;16.33;;;3.50;92.30;;;;;;5049714;28;20198;-49
2022/03/19 04:57:18;;;;;;;21.10;15.63;;;3.50;92.20;;;;;;5050711;28;20163;-52
2022/03/19 04:59:46;;;;;;;23.17;17.20;;;3.50;92.00;;;;;;5051459;28;20199;-50
2022/03/19 05:02:11;;;;;;;19.97;15.90;;;3.50;92.00;;;;;;5051413;28;20179;-47
2022/03/19 05:04:37;;;;;;;22.00;15.40;;;3.50;91.90;;;;;;5055761;28;20170;-53
2022/03/19 05:07:02;;;;;;;20.27;14.90;;;3.60;91.70;;;;;;5055728;28;20189;-50
2022/03/19 05:14:43;;;;;;;22.67;15.67;;;3.60;91.60;;;;;;5073741;28;20225;-51
2022/03/19 05:17:08;;;;;;;18.33;15.37;;;3.50;91.50;;;;;;5074770;28;20198;-48
2022/03/19 05:19:34;;;;;;;19.80;14.50;;;3.40;91.50;;;;;;5075066;28;20202;-48
2022/03/19 05:21:59;;;;;;;22.00;15.77;;;3.50;91.50;;;;;;5075239;28;20186;-48
2022/03/19 05:24:25;;;;;;;21.30;16.77;;;3.50;91.40;;;;;;5075195;28;20177;-48
2022/03/19 05:26:50;;;;;;;18.77;15.73;;;3.60;91.60;;;;;;5074912;28;20655;-48
2022/03/19 05:29:16;;;;;;;20.30;15.60;;;3.60;91.80;;;;;;5075147;28;20178;-49
2022/03/19 05:31:42;;;;;;;19.67;15.83;;;3.60;91.70;;;;;;5075120;28;20635;-49
2022/03/19 05:36:51;;;;;;;21.17;16.27;;;3.50;91.10;;;;;;5075116;28;20297;-48
2022/03/19 05:39:17;;;;;;;20.77;15.33;;;3.60;91.20;;;;;;5075372;28;20293;-47
2022/03/19 05:41:42;;;;;;;19.17;14.63;;;3.50;90.90;;;;;;5075052;28;20194;-47
2022/03/19 05:44:08;;;;;;;20.67;15.23;;;3.60;91.00;;;;;;5074153;28;20188;-47
2022/03/19 05:46:34;;;;;;;17.87;14.80;;;3.50;90.70;;;;;;5075164;28;20201;-52
2022/03/19 05:49:00;;;;;;;18.53;14.73;;;3.60;90.70;;;;;;5074692;28;20550;-48
2022/03/19 05:51:25;;;;;;;16.90;14.67;;;3.70;90.60;;;;;;5074908;28;20198;-48
2022/03/19 05:53:51;;;;;;;20.33;15.40;;;3.70;90.50;;;;;;5074490;28;20528;-48
2022/03/19 05:56:17;;;;;;;18.40;14.33;;;3.70;90.20;;;;;;5056869;28;20185;-47
2022/03/19 05:58:43;;;;;;;17.00;13.33;;;3.70;89.80;;;;;;5074490;28;20191;-48
2022/03/19 06:01:08;;;;;;;18.30;14.20;;;3.80;88.50;;;;;;5074913;28;20199;-52
2022/03/19 06:03:34;;;;;;;16.00;12.50;;;3.80;86.70;;;;;;5074333;28;20185;-48
2022/03/19 06:06:00;;;;;;;16.40;11.40;;;3.80;85.30;;;;;;5074476;28;20179;-47
2022/03/19 06:08:25;;;;;;;14.40;10.80;;;3.90;81.40;;;;;;5074527;28;20627;-48
2022/03/19 06:10:51;;;;;;;12.83;10.73;;;4.10;78.40;;;;;;5074313;28;20189;-51
2022/03/19 06:13:16;;;;;;;13.33;10.17;;;4.20;77.70;;;;;;5073349;28;20220;-48
2022/03/19 06:15:42;;;;;;;12.57;9.47;;;4.30;74.50;;;;;;5073684;28;20178;-47
2022/03/19 06:18:07;;;;;;;14.27;9.93;;;4.50;72.00;;;;;;5073978;28;20206;-48
2022/03/19 06:20:33;;;;;;;13.43;9.47;;;4.60;72.20;;;;;;5074149;28;20508;-48
2022/03/19 06:23:00;;;;;;;12.63;10.33;;;4.70;70.30;;;;;;5071198;28;20409;-48
2022/03/19 06:25:26;;;;;;;12.87;10.40;;;4.70;70.40;;;;;;5073468;28;20254;-52
2022/03/19 06:27:51;;;;;;;13.67;9.87;;;4.80;71.70;;;;;;5071806;28;20279;-44
2022/03/19 06:30:17;;;;;;;11.20;9.43;;;4.90;74.20;;;;;;5073308;28;20546;-51
2022/03/19 06:32:42;;;;;;;12.27;9.10;;;5.00;75.00;;;;;;5054109;28;20288;-50
2022/03/19 06:35:10;;;;;;;14.00;9.87;;;5.20;73.90;;;;;;5073839;28;20166;-48
2022/03/19 06:37:36;;;;;;;12.23;9.80;;;5.30;71.50;;;;;;5073520;28;20170;-51
2022/03/19 06:40:06;;;;;;;12.80;10.00;;;5.50;72.20;;;;;;5069551;28;20265;-51
2022/03/19 06:42:33;;;;;;;14.43;9.40;;;5.60;71.40;;;;;;5073174;28;20197;-47
2022/03/19 06:44:59;;;;;;;11.53;9.00;;;5.70;69.60;;;;;;5055097;28;20174;-48
2022/03/19 06:47:24;;;;;;;14.60;9.60;;;5.80;69.40;;;;;;5073348;28;20174;-49
2022/03/19 06:49:51;;;;;;;12.50;9.17;;;5.90;69.00;;;;;;5055975;28;20197;-47
2022/03/19 06:52:17;;;;;;;11.47;9.17;;;5.90;67.60;;;;;;5062564;28;20725;-47
2022/03/19 06:54:42;;;;;;;11.10;9.23;;;6.00;68.90;;;;;;5053451;28;20171;-49
2022/03/19 06:57:08;;;;;;;11.37;9.40;;;6.10;66.70;;;;;;5058756;28;20174;-49
2022/03/19 06:59:33;;;;;;;13.23;9.43;;;6.10;65.10;;;;;;5073048;28;20222;-51
2022/03/19 07:01:59;;;;;;;14.27;9.37;;;6.20;66.00;;;;;;5073418;28;20551;-48
2022/03/19 07:04:25;;;;;;;11.40;9.07;;;6.30;66.20;;;;;;5073043;28;20171;-51
2022/03/19 07:06:50;;;;;;;11.33;8.73;;;6.30;66.50;;;;;;5073265;28;20163;-49
2022/03/19 07:09:16;;;;;;;11.30;8.63;;;6.40;65.30;;;;;;5073077;28;20175;-52
2022/03/19 07:11:41;;;;;;;12.73;9.47;;;6.50;65.00;;;;;;5073392;28;20209;-47
2022/03/19 07:14:07;;;;;;;11.20;8.80;;;6.60;65.40;;;;;;5072845;28;20276;-48
2022/03/19 07:16:32;;;;;;;12.00;8.93;;;6.70;64.50;;;;;;5072935;28;20174;-47
2022/03/19 07:18:58;;;;;;;11.67;9.17;;;6.80;65.00;;;;;;5076019;28;20206;-48
2022/03/19 07:21:24;;;;;;;11.27;8.60;;;6.90;63.60;;;;;;5086303;28;20190;-51
2022/03/19 07:23:50;;;;;;;12.20;8.80;;;7.00;62.70;;;;;;5092967;28;20179;-50
2022/03/19 07:26:16;;;;;;;11.80;8.87;;;7.10;63.10;;;;;;5072673;28;20212;-49
2022/03/19 07:28:41;;;;;;;10.97;8.77;;;7.10;62.60;;;;;;5066114;28;20607;-47
2022/03/19 07:31:07;;;;;;;11.53;9.43;;;7.30;60.80;;;;;;5066643;28;20235;-46
2022/03/19 07:33:36;;;;;;;12.63;9.20;;;7.30;61.70;;;;;;5072842;28;20170;-45
2022/03/19 07:36:06;;;;;;;11.23;9.13;;;7.40;61.30;;;;;;5068159;28;20166;-49
2022/03/19 07:38:32;;;;;;;12.00;9.53;;;7.50;58.40;;;;;;5072566;28;20222;-50
2022/03/19 07:43:42;;;;;;;10.37;7.70;;;7.70;58.30;;;;;;5070545;28;20185;-50
2022/03/19 07:46:08;;;;;;;11.17;8.10;;;7.80;56.30;;;;;;5070400;28;20177;-48
2022/03/19 07:48:34;;;;;;;10.23;7.70;;;7.90;55.30;;;;;;5067063;28;20186;-49
2022/03/19 07:50:59;;;;;;;10.00;7.80;;;8.00;53.90;;;;;;5070143;28;20716;-48
2022/03/19 07:53:25;;;;;;;9.37;7.83;;;8.10;54.70;;;;;;5070671;28;20273;-49
2022/03/19 07:55:53;;;;;;;11.67;8.73;;;8.20;54.60;;;;;;5054157;28;20193;-48
2022/03/19 07:58:19;;;;;;;12.00;9.53;;;8.30;53.40;;;;;;5071789;28;20200;-49
2022/03/19 08:00:44;;;;;;;10.83;8.53;;;8.40;54.70;;;;;;5054164;28;20229;-51
2022/03/19 08:03:10;;;;;;;11.10;8.73;;;8.60;53.30;;;;;;5071911;28;20551;-51
2022/03/19 08:05:36;;;;;;;9.33;7.80;;;8.80;54.80;;;;;;5071691;28;20535;-49
2022/03/19 08:08:05;;;;;;;11.27;9.03;;;8.90;52.70;;;;;;5071913;28;20232;-51
2022/03/19 08:10:31;;;;;;;10.80;9.10;;;9.10;52.70;;;;;;5071959;28;20166;-48
2022/03/19 08:13:03;;;;;;;12.13;9.67;;;9.30;51.20;;;;;;5071610;28;20275;-53
2022/03/19 08:15:30;;;;;;;10.60;8.90;;;9.50;52.30;;;;;;5072070;28;20175;-50
2022/03/19 08:17:56;;;;;;;11.17;7.90;;;9.70;50.30;;;;;;5072026;28;20170;-52
2022/03/19 08:20:21;;;;;;;12.17;9.10;;;9.80;48.80;;;;;;5071766;28;20171;-53
2022/03/19 08:22:47;;;;;;;9.47;7.93;;;10.00;49.30;;;;;;5071220;28;20201;-51
2022/03/19 08:25:13;;;;;;;10.10;8.40;;;10.10;48.00;;;;;;5071703;28;20232;-49
2022/03/19 08:27:38;;;;;;;12.37;9.20;;;10.40;48.50;;;;;;5071913;28;20205;-53
2022/03/19 08:30:05;;;;;;;9.73;8.20;;;10.60;48.20;;;;;;5053951;28;20237;-50
2022/03/19 08:32:31;;;;;;;11.00;8.33;;;10.90;48.00;;;;;;5071524;28;20291;-51
2022/03/19 08:34:56;;;;;;;9.70;8.13;;;11.10;45.60;;;;;;5071555;28;20162;-54
2022/03/19 08:37:22;;;;;;;14.07;9.93;;;11.40;48.70;;;;;;5070993;28;20170;-51
2022/03/19 08:42:33;;;;;;;12.80;10.50;;;12.10;50.10;;;;;;5071359;28;20208;-55
2022/03/19 08:44:59;;;;;;;15.00;10.40;;;12.50;49.10;;;;;;5071768;28;20186;-51
2022/03/19 08:47:25;;;;;;;15.67;9.60;;;12.80;47.60;;;;;;5071403;28;20642;-54
2022/03/19 08:49:50;;;;;;;13.47;9.90;;;13.00;47.80;;;;;;5071445;28;20178;-49
2022/03/19 08:52:16;;;;;;;11.80;9.73;;;13.30;47.80;;;;;;5071096;28;20226;-53
2022/03/19 08:54:41;;;;;;;10.50;9.37;;;13.60;46.40;;;;;;5071572;28;20169;-50
2022/03/19 08:57:07;;;;;;;11.67;9.53;;;13.70;46.20;;;;;;5071033;28;20255;-49
2022/03/19 08:59:32;;;;;;;10.40;9.30;;;13.90;46.40;;;;;;5071319;28;20292;-49
2022/03/19 09:01:59;;;;;;;11.07;9.27;;;14.00;45.30;;;;;;5071249;28;20190;-51
2022/03/19 09:04:25;;;;;;;11.30;8.60;;;15.00;45.10;;;;;;5071308;28;20659;-55
2022/03/19 09:06:50;;;;;;;10.13;8.90;;;14.10;44.20;;;;;;5071067;28;20179;-52
2022/03/19 09:09:17;;;;;;;11.20;9.07;;;14.10;43.10;;;;;;5071510;28;20171;-52
2022/03/19 09:11:43;;;;;;;9.23;8.17;;;14.20;42.90;;;;;;5068753;28;20229;-54
2022/03/19 09:14:09;;;;;;;12.07;8.37;;;15.60;44.00;;;;;;5070383;28;20205;-54
2022/03/19 09:16:35;;;;;;;9.53;8.50;;;14.60;43.20;;;;;;5070802;28;20217;-52
2022/03/19 09:19:02;;;;;;;11.53;9.20;;;14.80;41.90;;;;;;5070785;28;20293;-52
2022/03/19 09:21:29;;;;;;;9.93;8.93;;;15.10;41.40;;;;;;5070827;28;20194;-51
2022/03/19 09:23:56;;;;;;;11.27;8.93;;;15.10;39.60;;;;;;5070883;28;20194;-51
2022/03/19 09:26:21;;;;;;;10.03;9.03;;;15.10;40.00;;;;;;5071240;28;20171;-54
2022/03/19 09:28:47;;;;;;;11.33;8.80;;;15.00;39.20;;;;;;5070766;28;20658;-51
2022/03/19 09:31:14;;;;;;;10.00;8.80;;;14.80;39.50;;;;;;5070606;28;20269;-51
2022/03/19 09:33:39;;;;;;;9.50;7.73;;;14.70;40.40;;;;;;5070700;28;20706;-54
2022/03/19 09:36:06;;;;;;;10.07;8.40;;;14.80;36.50;;;;;;5070607;28;20175;-50
2022/03/19 09:38:32;;;;;;;10.63;7.23;;;14.40;33.80;;;;;;5070057;28;20263;-51
2022/03/19 09:40:58;;;;;;;8.87;7.93;;;14.30;35.90;;;;;;5070870;28;20679;-50
2022/03/19 09:43:25;;;;;;;10.30;7.93;;;14.70;36.70;;;;;;5071081;28;20175;-49
2022/03/19 09:45:51;;;;;;;9.10;7.77;;;15.10;36.50;;;;;;5070981;28;20229;-52
2022/03/19 09:48:17;;;;;;;8.03;7.23;;;15.70;33.60;;;;;;5071095;28;20254;-52
2022/03/19 09:50:43;;;;;;;9.30;7.47;;;16.30;37.50;;;;;;5055000;28;20633;-54
2022/03/19 09:53:09;;;;;;;8.53;7.63;;;17.10;32.80;;;;;;5074387;28;20178;-51
2022/03/19 09:55:38;;;;;;;8.97;7.80;;;17.80;33.40;;;;;;5074695;28;20174;-53
2022/03/19 09:58:04;;;;;;;8.27;7.47;;;18.70;33.10;;;;;;5074379;28;20207;-52
2022/03/19 10:00:31;;;;;;;10.37;9.33;;;19.70;30.00;;;;;;5074150;28;20173;-56
2022/03/19 10:02:56;;;;;;;9.80;8.52;;;20.20;29.70;;;;;;5074082;28;20187;-49
2022/03/19 10:10:53;;;;;;;8.90;8.10;;;23.00;28.40;;;;;;5074206;28;20188;-52
2022/03/19 10:13:18;;;;;;;10.48;9.07;;;23.80;27.40;;;;;;5074020;28;20269;-55
2022/03/19 10:15:44;;;;;;;10.48;8.88;;;24.40;27.00;;;;;;5074264;28;20245;-53
2022/03/19 10:18:11;;;;;;;10.23;9.23;;;24.50;25.90;;;;;;5073995;28;20277;-49
2022/03/19 10:20:37;;;;;;;13.50;9.52;;;24.20;26.20;;;;;;5073423;28;20185;-47
2022/03/19 10:23:04;;;;;;;12.77;10.07;;;23.00;25.50;;;;;;5073953;28;20194;-49
2022/03/19 10:25:30;;;;;;;10.73;9.60;;;20.00;26.50;;;;;;5074100;28;20179;-51
2022/03/19 10:28:02;;;;;;;11.90;10.17;;;17.80;28.00;;;;;;5074284;28;20223;-51
2022/03/19 10:30:38;;;;;;;11.10;10.03;;;16.80;29.50;;;;;;5073861;28;20169;-51
2022/03/19 10:33:06;;;;;;;11.07;9.97;;;16.30;30.40;;;;;;5073849;28;20177;-54
2022/03/19 10:35:34;;;;;;;11.97;10.70;;;16.30;31.60;;;;;;5070603;28;20182;-51
2022/03/19 10:38:22;;;;;;;12.77;10.80;;;17.00;30.50;;;;;;5073253;28;20178;-52
2022/03/19 10:40:51;;;;;;;11.27;10.13;;;17.90;30.70;;;;;;5068102;28;20178;-54
2022/03/19 10:43:22;;;;;;;12.40;11.03;;;19.30;28.80;;;;;;5069469;28;20670;-49
2022/03/19 10:45:51;;;;;;;11.80;10.60;;;19.40;29.00;;;;;;5071497;28;20179;-51
2022/03/19 10:48:22;;;;;;;12.80;11.50;;;19.50;28.60;;;;;;5072813;28;20241;-49
2022/03/19 10:50:49;;;;;;;13.17;11.73;;;19.30;29.30;;;;;;5073660;28;20179;-53
2022/03/19 10:53:16;;;;;;;13.27;11.90;;;20.00;29.70;;;;;;5072859;28;20181;-50
2022/03/19 10:55:42;;;;;;;14.05;11.93;;;20.70;29.20;;;;;;5073471;28;20178;-52
2022/03/19 10:58:08;;;;;;;14.15;12.45;;;21.30;30.00;;;;;;5073391;28;20201;-50
2022/03/19 11:00:35;;;;;;;14.45;12.93;;;22.50;29.90;;;;;;5073166;28;20716;-47
2022/03/19 11:03:23;;;;;;;13.98;12.57;;;23.50;28.50;;;;;;5072930;28;20177;-48
2022/03/19 11:05:55;;;;;;;15.82;14.15;;;23.70;27.90;;;;;;5073560;28;20171;-48
2022/03/19 11:08:24;;;;;;;14.65;13.18;;;22.90;28.60;;;;;;5073163;28;20170;-50
2022/03/19 11:10:59;;;;;;;14.50;13.10;;;21.90;29.90;;;;;;5073288;28;20202;-56
2022/03/19 11:13:28;;;;;;;14.82;13.27;;;22.40;30.10;;;;;;5072687;28;20193;-51
2022/03/19 11:15:57;;;;;;;15.07;13.68;;;22.70;29.20;;;;;;5073338;28;20202;-49
2022/03/19 11:18:23;;;;;;;15.50;14.00;;;22.70;30.50;;;;;;5072991;28;20229;-51
2022/03/19 11:20:50;;;;;;;15.90;14.30;;;22.30;28.80;;;;;;5072863;28;20247;-53
2022/03/19 11:23:24;;;;;;;15.57;14.07;;;21.50;29.00;;;;;;5072906;28;20170;-51
2022/03/19 11:25:54;;;;;;;14.38;12.98;;;20.60;30.90;;;;;;5073031;28;20175;-49
2022/03/19 11:28:20;;;;;;;16.35;14.68;;;20.10;31.30;;;;;;5073006;28;20640;-51
2022/03/19 11:31:09;;;;;;;14.57;13.18;;;20.30;31.90;;;;;;5072532;28;20182;-50
2022/03/19 11:33:36;;;;;;;16.25;14.65;;;21.30;31.10;;;;;;5072509;28;20171;-49
2022/03/19 11:36:06;;;;;;;17.40;15.80;;;22.40;30.20;;;;;;5072681;28;20176;-50
2022/03/19 11:38:37;;;;;;;16.95;15.45;;;23.50;29.40;;;;;;5072381;28;20575;-49
2022/03/19 11:41:17;;;;;;;16.92;15.35;;;24.40;30.00;;;;;;5072454;28;20749;-49
2022/03/19 11:43:42;;;;;;;17.17;15.52;;;25.30;28.70;;;;;;5071044;28;20171;-50
2022/03/19 11:46:12;;;;;;;17.77;16.08;;;24.30;28.90;;;;;;5072259;28;20201;-49
2022/03/19 11:48:45;;;;;;;17.75;16.08;;;23.70;29.20;;;;;;5072484;28;20193;-49
2022/03/19 11:51:31;;;;;;;18.08;16.38;;;22.90;29.30;;;;;;5072390;28;20191;-49
2022/03/19 11:54:06;;;;;;;17.42;15.90;;;22.60;30.20;;;;;;5071992;28;20175;-50
2022/03/19 11:56:47;;;;;;;18.20;16.50;;;22.90;31.60;;;;;;5072390;28;20247;-49
2022/03/19 11:59:16;;;;;;;18.73;17.02;;;23.30;30.80;;;;;;5068704;28;20606;-51
2022/03/19 12:01:54;;;;;;;17.83;16.23;;;23.20;30.00;;;;;;5071421;28;20245;-51
2022/03/19 12:04:21;;;;;;;17.10;15.45;;;22.50;30.40;;;;;;5064092;28;20523;-49
2022/03/19 12:06:52;;;;;;;19.65;17.67;;;22.40;33.00;;;;;;5071649;28;20665;-49
2022/03/19 12:09:19;;;;;;;20.00;18.13;;;23.10;30.90;;;;;;5053949;28;20175;-51
2022/03/19 12:12:15;;;;;;;19.88;17.88;;;23.40;30.80;;;;;;5071602;28;20270;-49
2022/03/19 12:14:41;;;;;;;20.33;18.55;;;23.10;31.80;;;;;;5053927;28;20234;-49
2022/03/19 12:17:20;;;;;;;20.95;19.05;;;22.20;31.50;;;;;;5070530;28;20293;-50
2022/03/19 12:19:54;;;;;;;21.60;19.40;;;21.20;33.20;;;;;;5071788;28;20566;-49
2022/03/19 12:22:31;;;;;;;20.88;18.77;;;20.40;34.00;;;;;;5071376;28;20191;-48
2022/03/19 12:25:09;;;;;;;21.25;19.05;;;19.80;34.10;;;;;;5071918;28;20239;-53
2022/03/19 12:27:35;;;;;;;21.17;19.07;;;19.50;35.20;;;;;;5071838;28;20170;-52
2022/03/19 12:30:01;;;;;;;20.63;18.73;;;19.10;35.50;;;;;;5071844;28;20175;-51
2022/03/19 12:32:27;;;;;;;21.57;19.47;;;18.90;35.30;;;;;;5070948;28;20247;-48
2022/03/19 12:35:00;;;;;;;21.20;19.10;;;18.70;35.80;;;;;;5071726;28;20175;-54
2022/03/19 12:37:26;;;;;;;21.37;19.37;;;19.00;35.90;;;;;;5071152;28;20308;-55
2022/03/19 12:40:01;;;;;;;20.65;18.40;;;19.40;35.80;;;;;;5071691;28;20552;-54
2022/03/19 12:42:34;;;;;;;20.67;18.65;;;19.80;36.20;;;;;;5071299;28;20190;-53
2022/03/19 12:45:03;;;;;;;20.77;18.77;;;20.00;35.40;;;;;;5071999;28;20628;-49
2022/03/19 12:47:29;;;;;;;20.17;18.23;;;19.60;35.60;;;;;;5071679;28;20171;-50
2022/03/19 12:49:55;;;;;;;19.87;17.93;;;19.40;36.10;;;;;;5071507;28;20175;-55
2022/03/19 12:52:22;;;;;;;20.77;18.83;;;19.20;36.10;;;;;;5071378;28;20191;-49
2022/03/19 12:54:55;;;;;;;21.30;19.10;;;19.00;35.90;;;;;;5071731;28;20579;-51
2022/03/19 12:57:24;;;;;;;20.43;18.33;;;18.80;37.00;;;;;;5071634;28;20170;-49
2022/03/19 12:59:55;;;;;;;20.10;18.20;;;18.90;36.90;;;;;;5071540;28;20658;-53